GCGMLPMA

Guest
Details From GCGM - La Gomera
To LPMA - Madeira
Flight Number -
Tags generated
Created
Modified
Stats Distance 291 nm / 540 km
Max Altitude 35,000 ft / 10,668 m
Waypoints 4
Social Downloads 0
Likes 0
Share VATSIM

Download

Looking for another format? Having issues loading an existing format? Contact us
Advertisement - Login to hide

Notes

Basic altitude profile: - Ascent Rate: 2500ft/min - Ascent Speed: 250kts - Cruise Altitude: 35000ft - Cruise Speed: 420kts - Descent Rate: 1500ft/min - Descent Speed: 250kts Options: - Use NATs: yes - Use PACOTS: yes - Use low airways: no - Use high airways: yes

Route

GCGM BRICK UN728 ORTIS LPMA

ID Type Via Altitude Latitude Longitude Leg Dist Tot Dist Heading (true) Name
O GCGM APT - 0 ft / 0 m 28.02963˚ -17.21460˚ - 0 nm - La Gomera
BRICK FIX - 35,000 ft / 10,668 m 29.59137˚ -16.37289˚ 103 nm 103 nm 25° / 25° -
ORTIS FIX UN728 (AWY-HI) 24,500 ft / 7,468 m 31.40696˚ -16.55691˚ 109 nm 213 nm 355° / 355° -
O LPMA APT - 0 ft / 0 m 32.69770˚ -16.77445˚ 78 nm 291 nm 352° / 352° Madeira

Altitude Profile

Advertisement - Login to hide

Weather


0- 5 10 15 20 25 30 35+ Temperature / ° C

Clouds and Precipitation
Forecast for 2017-12-16 12:00 UTC. Updated 24 minutes ago

Ground ~20,000 ft ~40,000 ft Winds

GCGM

Details ICAO GCGM (GMZ)
Name La Gomera
Region Canary Islands
Timezone Atlantic/Canary (UTC+0.0)
Stats Elevation 715 ft / 218 m (AMSL)
Location 28.029627° -17.214603°
Runways 1
Magnetic Variation 5.359° W

METAR

GCGM 160730Z 00000KT 9999 SCT033 18/14 Q1023 RMK R09/VRB01KT ARP/00000KT

Decode

TAF

TAF GCGM 160200Z 1603/1703 23008KT 9999 FEW025 TX22/1614Z TN17/1606Z PROB40 TEMPO 1612/1703 4500 RA

Decode

Departure Runways

ID Width Length Bearing (true) Bearing (mag) Surface Threshold Offset Overrun Length
09 98 ft / 30 m 4,914 ft / 1,498 m 81.17° 86.53° Asphalt 0 ft / 0 m 0 ft / 0 m
27 98 ft / 30 m 4,914 ft / 1,498 m 261.18° 266.54° Asphalt 0 ft / 0 m 0 ft / 0 m

LPMA

Details ICAO LPMA (FNC)
Name Madeira
Region Portugal
Timezone Atlantic/Madeira (UTC+0.0)
Stats Elevation 192 ft / 59 m (AMSL)
Location 32.697704° -16.774449°
Runways 1
Magnetic Variation 4.981° W

METAR

LPMA 160730Z 35007KT 280V060 9999 BKN013 18/15 Q1023

Decode

TAF

TAF LPMA 160500Z 1606/1706 35010KT 9999 SCT013 BKN030 TEMPO 1606/1620 6000 -RA BKN013 BECMG 1613/1615 04015KT

Decode

Destination Runways

ID Width Length Bearing (true) Bearing (mag) Surface Threshold Offset Overrun Length
05 141 ft / 43 m 8,683 ft / 2,647 m 42.98° 47.96° Asphalt 472 ft / 144 m 0 ft / 0 m
23 141 ft / 43 m 8,683 ft / 2,647 m 222.99° 227.97° Asphalt 466 ft / 142 m 0 ft / 0 m

Popular Alternatives